Flight Track Log - Related Links

Times and Time Zones

All times are in EST time to prevent confusion due to time zone crossing. See the ASQ5685 flight status page for this flight to view local times or setup timezone preferences in your user account.


Time Position Orientation Groundspeed Altitude Reporting Facility
EST Latitude Longitude Course Direction KTS MPH feet Rate Location/Type
Thu 09:45:54 AM 33.6353 -84.3756 69° East 390 449 2,400  Level Atlanta Center
Thu 09:47:02 AM 33.6333 -84.2667 91° East 291 335 4,300 2,156 Climbing Atlanta TRACON
Thu 09:48:00 AM 33.9635 -84.0389 53° Northeast  Level Estimated
Thu 09:48:02 AM 33.6333 -84.1667 90° East 299 344 7,000  Level Atlanta TRACON
Thu 09:48:54 AM 33.6439 -84.0936 80° East 316 364 8,600 2,089 Climbing Atlanta Center
Thu 09:49:00 AM 34.0046 -83.9095 69° East  Level FlightAware Approximate
Thu 09:49:54 AM 33.7003 -84.0139 50° Northeast 310 357 10,900  Level Atlanta Center
Thu 09:50:00 AM 34.0456 -83.7799 69° East  Level FlightAware Approximate
Thu 09:50:54 AM 33.7711 -83.9239 47° Northeast 347 399 11,800  Level Atlanta Center
Thu 09:51:00 AM 34.0865 -83.6503 69° East  Level FlightAware Approximate
Thu 09:51:54 AM 33.8442 -83.8286 47° Northeast 370 426 12,900  Level Atlanta Center
Thu 09:52:54 AM 33.9192 -83.7308 47° Northeast 382 440 14,400 1,450 Climbing Atlanta Center
Thu 09:53:54 AM 33.9878 -83.6253 52° Northeast 388 447 15,800 1,200 Climbing Atlanta Center
Thu 09:54:54 AM 34.0561 -83.5147 53° Northeast 405 466 16,800 1,000 Climbing Atlanta Center
Thu 09:55:54 AM 34.1267 -83.4014 53° Northeast 410 472 17,800 900 Climbing Atlanta Center
Thu 09:56:54 AM 34.1989 -83.2853 53° Northeast 427 491 18,600 900 Climbing Atlanta Center
Thu 09:57:54 AM 34.2733 -83.1692 52° Northeast 432 497 19,600 1,000 Climbing Atlanta Center
Thu 09:58:54 AM 34.3456 -83.0500 54° Northeast 438 504 20,600 1,050 Climbing Atlanta Center
Thu 09:59:54 AM 34.4175 -82.9358 53° Northeast 431 496 21,700 1,050 Climbing Atlanta Center
Thu 10:00:54 AM 34.4894 -82.8139 54° Northeast 433 498 22,700 850 Climbing Atlanta Center
Thu 10:01:54 AM 34.5508 -82.7072 55° Northeast 439 505 23,400 650 Climbing Atlanta Center
Thu 10:02:54 AM 34.6372 -82.5819 50° Northeast 439 505 24,000 550 Climbing Atlanta Center
Thu 10:03:54 AM 34.7108 -82.4594 54° Northeast 439 505 24,500 500 Climbing Atlanta Center
Thu 10:04:54 AM 34.7864 -82.3342 54° Northeast 446 513 25,000 500 Climbing Atlanta Center
Thu 10:05:54 AM 34.8636 -82.2061 54° Northeast 452 520 25,500 500 Climbing Atlanta Center
Thu 10:06:54 AM 34.9350 -82.0981 51° Northeast 457 526 26,000 500 Climbing Atlanta Center
Thu 10:07:54 AM 35.0122 -81.9719 53° Northeast 457 526 26,500 500 Climbing Atlanta Center
Thu 10:08:54 AM 35.0831 -81.8381 57° Northeast 463 533 27,000 500 Climbing Atlanta Center
Thu 10:09:54 AM 35.1536 -81.7042 57° Northeast 463 533 27,500 500 Climbing Atlanta Center
Thu 10:10:54 AM 35.2219 -81.5725 58° Northeast 468 539 28,000 500 Climbing Atlanta Center
Thu 10:11:54 AM 35.2922 -81.4408 57° Northeast 463 533 28,500 500 Climbing Atlanta Center
Thu 10:12:54 AM 35.3603 -81.3061 58° Northeast 463 533 29,000 250 Climbing Atlanta Center
Thu 10:13:54 AM 35.4281 -81.1714 58° Northeast 463 533 29,000  Level Atlanta Center
Thu 10:14:54 AM 35.5000 -81.0336 57° Northeast 468 539 29,000  Level Atlanta Center
Thu 10:15:54 AM 35.5697 -80.9008 57° Northeast 468 539 29,000  Level Atlanta Center
Thu 10:16:54 AM 35.6372 -80.7731 57° Northeast 456 525 29,000  Level Atlanta Center
Thu 10:17:54 AM 35.7028 -80.6478 57° Northeast 446 513 29,000  Level Atlanta Center
Thu 10:18:54 AM 35.7758 -80.5064 57° Northeast 446 513 29,000  Level Atlanta Center
Thu 10:19:54 AM 35.8392 -80.3833 58° Northeast 446 513 29,000  Level Atlanta Center
Thu 10:20:54 AM 35.9019 -80.2575 58° Northeast 441 507 29,000  Level Atlanta Center
Thu 10:21:54 AM 35.9650 -80.1339 58° Northeast 436 502 29,000  Level Atlanta Center
Thu 10:24:17 AM 36.1222 -79.8453 56° Northeast 436 502 29,000  Level Washington Center
Thu 10:25:28 AM 36.1914 -79.7203 56° Northeast 436 502 29,000 -183 Level Washington Center
Thu 10:26:28 AM 36.2772 -79.5831 52° Northeast 447 514 28,600 -446 Descending Washington Center
Thu 10:27:29 AM 36.3714 -79.4486 49° Northeast 460 529 28,100 -504 Descending Washington Center
Thu 10:28:27 AM 36.4564 -79.3339 47° Northeast 473 544 27,600 -500 Descending Washington Center
Thu 10:29:29 AM 36.5481 -79.2092 48° Northeast 484 557 27,100 -500 Descending Washington Center
Thu 10:30:27 AM 36.6436 -79.0814 47° Northeast 492 566 26,600 -504 Descending Washington Center
Thu 10:31:28 AM 36.7458 -78.9331 49° Northeast 503 579 26,100 -496 Descending Washington Center
Thu 10:32:28 AM 36.8414 -78.7997 48° Northeast 503 579 25,600 -500 Descending Washington Center
Thu 10:33:28 AM 36.9256 -78.6836 48° Northeast 503 579 25,100 -298 Descending Washington Center
Thu 10:34:29 AM 37.0167 -78.5547 48° Northeast 503 579 25,000 -50 Descending Washington Center
Thu 10:35:29 AM 37.1050 -78.4306 48° Northeast 498 573 25,000  Level Washington Center
Thu 10:36:27 AM 37.2042 -78.2933 48° Northeast 486 559 25,000  Level Washington Center
Thu 10:37:28 AM 37.3067 -78.1950 37° Northeast 467 537 25,000 -198 Level Washington Center
Thu 10:38:28 AM 37.4022 -78.1119 35° Northeast 462 532 24,600 -446 Descending Washington Center
Thu 10:39:29 AM 37.5106 -78.0189 34° Northeast 462 532 24,100 -655 Descending Washington Center
Thu 10:40:27 AM 37.6228 -77.9281 33° Northeast 467 537 23,300 -1,866 Descending Washington Center
Thu 10:41:28 AM 37.7331 -77.8317 35° Northeast 475 547 20,400 -2,727 Descending Washington Center
Thu 10:42:28 AM 37.8411 -77.7400 34° Northeast 470 541 17,800 -2,672 Descending Washington Center
Thu 10:43:27 AM 37.9386 -77.6561 34° Northeast 451 519 15,100 -2,850 Descending Washington Center
Thu 10:44:28 AM 38.0444 -77.5667 34° Northeast 428 493 12,100 -2,508 Descending Washington Center
Thu 10:45:29 AM 38.1333 -77.4897 34° Northeast 408 470 10,000 -1,041 Descending Washington Center
Thu 10:46:29 AM 38.2092 -77.4308 31° Northeast 360 414 10,000 -508 Level Washington Center
Thu 10:47:27 AM 38.2869 -77.3853 25° Northeast 325 374 9,000 -1,119 Descending Washington Center
Thu 10:48:27 AM 38.3689 -77.3581 15° North 303 349 7,800 -1,190 Descending Washington Center
Thu 10:49:28 AM 38.4500 -77.3600 359° North 290 334 6,600 -1,140 Descending Washington Center
Thu 10:50:28 AM 38.5250 -77.3644 357° North 285 328 5,500 -893 Descending Washington Center
Thu 10:51:29 AM 38.6000 -77.3661 359° North 277 319 4,800 -841 Descending Washington Center
Thu 10:52:15 AM 38.6667 -77.3667 360° North 276 318 4,000 -432 Descending Potomac TRACON
Thu 10:53:20 AM 38.7500 -77.3500 North 270 311 4,000  Level Potomac TRACON
Thu 10:54:21 AM 38.8167 -77.3500 360° North 269 310 4,000  Level Potomac TRACON
Thu 10:55:15 AM 38.8833 -77.3500 360° North 272 313 4,000  Level Potomac TRACON
Thu 10:56:15 AM 38.9667 -77.3500 360° North 275 316 4,000 -200 Level Potomac TRACON
Thu 10:57:15 AM 39.0333 -77.3500 360° North 265 305 3,600 -450 Descending Potomac TRACON
Thu 10:58:15 AM 39.1167 -77.3500 360° North 270 311 3,100 -300 Descending Potomac TRACON
Thu 10:59:15 AM 39.1833 -77.3500 360° North 269 310 3,000 -248 Descending Potomac TRACON
Thu 11:00:16 AM 39.2333 -77.3833 333° Northwest 226 260 2,600 -397 Descending Potomac TRACON
Thu 11:01:16 AM 39.1833 -77.4333 218° Southwest 198 228 2,200 -300 Descending Potomac TRACON
Thu 11:02:16 AM 39.1333 -77.4333 180° South 171 197 2,000 -100 Descending Potomac TRACON
Thu 11:03:16 AM 39.1000 -77.4333 180° South 158 182 2,000  Level Potomac TRACON
Thu 11:04:17 AM 39.0500 -77.4333 180° South 163 188 2,000 -248 Level Potomac TRACON
Thu 11:05:17 AM 39.0167 -77.4333 180° South 134 154 1,500 -650 Descending Potomac TRACON
Thu 11:06:17 AM 38.9667 -77.4333 180° South 135 155 700 -800 Descending Potomac TRACON

Login

Don't have an account? Register now (free) for customized features, flight alerts, and more!